sensor_id;sensor_type;location;lat;lon;timestamp;pressure;altitude;pressure_sealevel;temperature
62930;BMP280;49036;42.782;23.108;2023-09-07T00:01:30;94461.53;;;17.76
62930;BMP280;49036;42.782;23.108;2023-09-07T00:04:15;94462.81;;;17.73
62930;BMP280;49036;42.782;23.108;2023-09-07T00:06:41;94455.03;;;17.72
62930;BMP280;49036;42.782;23.108;2023-09-07T00:09:10;94454.91;;;17.69
62930;BMP280;49036;42.782;23.108;2023-09-07T00:11:51;94454.19;;;17.69
62930;BMP280;49036;42.782;23.108;2023-09-07T00:14:16;94452.84;;;17.70
62930;BMP280;49036;42.782;23.108;2023-09-07T00:16:42;94460.00;;;17.73
62930;BMP280;49036;42.782;23.108;2023-09-07T00:19:07;94457.19;;;17.73
62930;BMP280;49036;42.782;23.108;2023-09-07T00:21:33;94453.09;;;17.76
62930;BMP280;49036;42.782;23.108;2023-09-07T00:23:58;94453.09;;;17.76
62930;BMP280;49036;42.782;23.108;2023-09-07T00:26:24;94463.53;;;17.74
62930;BMP280;49036;42.782;23.108;2023-09-07T00:28:49;94463.63;;;17.76
62930;BMP280;49036;42.782;23.108;2023-09-07T00:31:15;94466.44;;;17.76
62930;BMP280;49036;42.782;23.108;2023-09-07T00:33:40;94472.06;;;17.76
62930;BMP280;49036;42.782;23.108;2023-09-07T00:36:06;94465.72;;;17.75
62930;BMP280;49036;42.782;23.108;2023-09-07T00:38:31;94465.72;;;17.75
62930;BMP280;49036;42.782;23.108;2023-09-07T00:40:57;94468.34;;;17.71
62930;BMP280;49036;42.782;23.108;2023-09-07T00:43:22;94465.34;;;17.67
62930;BMP280;49036;42.782;23.108;2023-09-07T00:45:48;94461.81;;;17.66
62930;BMP280;49036;42.782;23.108;2023-09-07T00:48:15;94464.59;;;17.66
62930;BMP280;49036;42.782;23.108;2023-09-07T00:50:44;94460.22;;;17.63
62930;BMP280;49036;42.782;23.108;2023-09-07T00:53:10;94459.41;;;17.61
62930;BMP280;49036;42.782;23.108;2023-09-07T00:55:37;94471.91;;;17.58
62930;BMP280;49036;42.782;23.108;2023-09-07T00:58:05;94472.63;;;17.58
62930;BMP280;49036;42.782;23.108;2023-09-07T01:00:31;94464.72;;;17.55
62930;BMP280;49036;42.782;23.108;2023-09-07T01:02:57;94468.09;;;17.51
62930;BMP280;49036;42.782;23.108;2023-09-07T01:05:30;94466.59;;;17.50
62930;BMP280;49036;42.782;23.108;2023-09-07T01:09:11;94462.88;;;17.46
62930;BMP280;49036;42.782;23.108;2023-09-07T01:11:39;94468.28;;;17.42
62930;BMP280;49036;42.782;23.108;2023-09-07T01:14:05;94468.84;;;17.38
62930;BMP280;49036;42.782;23.108;2023-09-07T01:18:42;94472.66;;;17.31
62930;BMP280;49036;42.782;23.108;2023-09-07T01:21:09;94463.34;;;17.26
62930;BMP280;49036;42.782;23.108;2023-09-07T01:23:37;94463.84;;;17.23
62930;BMP280;49036;42.782;23.108;2023-09-07T01:27:34;94461.47;;;17.17
62930;BMP280;49036;42.782;23.108;2023-09-07T01:30:00;94453.59;;;17.14
62930;BMP280;49036;42.782;23.108;2023-09-07T01:32:27;94457.13;;;17.14
62930;BMP280;49036;42.782;23.108;2023-09-07T01:34:57;94454.81;;;17.11
62930;BMP280;49036;42.782;23.108;2023-09-07T01:39:20;94457.53;;;17.09
62930;BMP280;49036;42.782;23.108;2023-09-07T01:41:45;94454.63;;;17.07
62930;BMP280;49036;42.782;23.108;2023-09-07T01:44:11;94462.31;;;17.06
62930;BMP280;49036;42.782;23.108;2023-09-07T01:46:36;94455.88;;;17.04
62930;BMP280;49036;42.782;23.108;2023-09-07T01:49:02;94465.63;;;17.02
62930;BMP280;49036;42.782;23.108;2023-09-07T01:51:27;94455.75;;;17.01
62930;BMP280;49036;42.782;23.108;2023-09-07T01:53:54;94462.09;;;17.02
62930;BMP280;49036;42.782;23.108;2023-09-07T01:56:20;94466.25;;;17.01
62930;BMP280;49036;42.782;23.108;2023-09-07T01:58:45;94457.84;;;17.01
62930;BMP280;49036;42.782;23.108;2023-09-07T02:01:24;94465.56;;;17.00
62930;BMP280;49036;42.782;23.108;2023-09-07T02:03:50;94452.22;;;17.01
62930;BMP280;49036;42.782;23.108;2023-09-07T02:07:27;94456.41;;;17.00
62930;BMP280;49036;42.782;23.108;2023-09-07T02:09:53;94459.41;;;17.04
62930;BMP280;49036;42.782;23.108;2023-09-07T02:12:18;94455.97;;;17.06
62930;BMP280;49036;42.782;23.108;2023-09-07T02:14:44;94458.06;;;17.05
62930;BMP280;49036;42.782;23.108;2023-09-07T02:17:09;94460.97;;;17.07
62930;BMP280;49036;42.782;23.108;2023-09-07T02:20:28;94467.28;;;17.08
62930;BMP280;49036;42.782;23.108;2023-09-07T02:22:54;94467.91;;;17.06
62930;BMP280;49036;42.782;23.108;2023-09-07T02:25:19;94465.13;;;17.06
62930;BMP280;49036;42.782;23.108;2023-09-07T02:27:45;94466.56;;;17.07
62930;BMP280;49036;42.782;23.108;2023-09-07T02:30:10;94463.03;;;17.07
62930;BMP280;49036;42.782;23.108;2023-09-07T02:32:58;94473.41;;;17.04
62930;BMP280;49036;42.782;23.108;2023-09-07T02:35:24;94468.22;;;16.98
62930;BMP280;49036;42.782;23.108;2023-09-07T02:37:49;94466.47;;;16.91
62930;BMP280;49036;42.782;23.108;2023-09-07T02:40:15;94467.50;;;16.84
62930;BMP280;49036;42.782;23.108;2023-09-07T02:42:41;94468.75;;;16.81
62930;BMP280;49036;42.782;23.108;2023-09-07T02:45:10;94469.16;;;16.76
62930;BMP280;49036;42.782;23.108;2023-09-07T02:47:36;94467.50;;;16.71
62930;BMP280;49036;42.782;23.108;2023-09-07T02:53:27;94465.94;;;16.67
62930;BMP280;49036;42.782;23.108;2023-09-07T02:55:53;94473.50;;;16.65
62930;BMP280;49036;42.782;23.108;2023-09-07T02:58:18;94474.78;;;16.62
62930;BMP280;49036;42.782;23.108;2023-09-07T03:00:44;94470.78;;;16.53
62930;BMP280;49036;42.782;23.108;2023-09-07T03:03:11;94472.84;;;16.53
62930;BMP280;49036;42.782;23.108;2023-09-07T03:05:41;94480.63;;;16.54
62930;BMP280;49036;42.782;23.108;2023-09-07T03:08:07;94476.91;;;16.50
62930;BMP280;49036;42.782;23.108;2023-09-07T03:10:35;94474.72;;;16.48
62930;BMP280;49036;42.782;23.108;2023-09-07T03:13:00;94473.38;;;16.49
62930;BMP280;49036;42.782;23.108;2023-09-07T03:15:26;94468.91;;;16.44
62930;BMP280;49036;42.782;23.108;2023-09-07T03:17:52;94468.81;;;16.42
62930;BMP280;49036;42.782;23.108;2023-09-07T03:20:18;94480.03;;;16.42
62930;BMP280;49036;42.782;23.108;2023-09-07T03:22:44;94481.44;;;16.43
62930;BMP280;49036;42.782;23.108;2023-09-07T03:25:10;94477.09;;;16.40
62930;BMP280;49036;42.782;23.108;2023-09-07T03:27:37;94477.81;;;16.41
62930;BMP280;49036;42.782;23.108;2023-09-07T03:30:03;94481.97;;;16.40
62930;BMP280;49036;42.782;23.108;2023-09-07T03:32:29;94485.88;;;16.35
62930;BMP280;49036;42.782;23.108;2023-09-07T03:34:59;94482.97;;;16.32
62930;BMP280;49036;42.782;23.108;2023-09-07T03:37:25;94479.84;;;16.26
62930;BMP280;49036;42.782;23.108;2023-09-07T03:39:50;94491.78;;;16.27
62930;BMP280;49036;42.782;23.108;2023-09-07T03:42:16;94488.25;;;16.26
62930;BMP280;49036;42.782;23.108;2023-09-07T03:44:41;94492.28;;;16.23
62930;BMP280;49036;42.782;23.108;2023-09-07T03:47:07;94492.19;;;16.21
62930;BMP280;49036;42.782;23.108;2023-09-07T03:49:34;94492.91;;;16.22
62930;BMP280;49036;42.782;23.108;2023-09-07T03:51:59;94485.50;;;16.15
62930;BMP280;49036;42.782;23.108;2023-09-07T03:54:25;94500.38;;;16.17
62930;BMP280;49036;42.782;23.108;2023-09-07T03:56:50;94495.47;;;16.18
62930;BMP280;49036;42.782;23.108;2023-09-07T03:59:16;94501.09;;;16.18
62930;BMP280;49036;42.782;23.108;2023-09-07T04:01:42;94504.53;;;16.16
62930;BMP280;49036;42.782;23.108;2023-09-07T04:04:07;94496.13;;;16.16
62930;BMP280;49036;42.782;23.108;2023-09-07T04:06:33;94500.47;;;16.19
62930;BMP280;49036;42.782;23.108;2023-09-07T04:08:58;94502.53;;;16.19
62930;BMP280;49036;42.782;23.108;2023-09-07T04:11:24;94504.09;;;16.22
62930;BMP280;49036;42.782;23.108;2023-09-07T04:13:49;94503.00;;;16.27
62930;BMP280;49036;42.782;23.108;2023-09-07T04:16:15;94508.47;;;16.25
62930;BMP280;49036;42.782;23.108;2023-09-07T04:18:40;94513.69;;;16.30
62930;BMP280;49036;42.782;23.108;2023-09-07T04:21:08;94503.84;;;16.29
62930;BMP280;49036;42.782;23.108;2023-09-07T04:23:34;94505.28;;;16.30
62930;BMP280;49036;42.782;23.108;2023-09-07T04:26:07;94504.75;;;16.34
62930;BMP280;49036;42.782;23.108;2023-09-07T04:28:33;94506.84;;;16.33
62930;BMP280;49036;42.782;23.108;2023-09-07T04:30:58;94508.28;;;16.35
62930;BMP280;49036;42.782;23.108;2023-09-07T04:33:24;94514.63;;;16.35
62930;BMP280;49036;42.782;23.108;2023-09-07T04:35:49;94510.97;;;16.32
62930;BMP280;49036;42.782;23.108;2023-09-07T04:38:14;94519.91;;;16.29
62930;BMP280;49036;42.782;23.108;2023-09-07T04:40:40;94515.53;;;16.26
62930;BMP280;49036;42.782;23.108;2023-09-07T04:43:05;94525.66;;;16.19
62930;BMP280;49036;42.782;23.108;2023-09-07T04:45:31;94529.38;;;16.10
62930;BMP280;49036;42.782;23.108;2023-09-07T04:47:56;94538.66;;;16.01
62930;BMP280;49036;42.782;23.108;2023-09-07T04:50:22;94528.47;;;15.94
62930;BMP280;49036;42.782;23.108;2023-09-07T04:52:47;94534.97;;;15.85
62930;BMP280;49036;42.782;23.108;2023-09-07T04:55:13;94538.50;;;15.74
62930;BMP280;49036;42.782;23.108;2023-09-07T04:57:38;94535.72;;;15.74
62930;BMP280;49036;42.782;23.108;2023-09-07T05:00:07;94531.34;;;15.71
62930;BMP280;49036;42.782;23.108;2023-09-07T05:02:36;94535.47;;;15.70
62930;BMP280;49036;42.782;23.108;2023-09-07T05:05:08;94531.44;;;15.73
62930;BMP280;49036;42.782;23.108;2023-09-07T05:07:33;94531.81;;;15.67
62930;BMP280;49036;42.782;23.108;2023-09-07T05:09:59;94529.38;;;15.73
62930;BMP280;49036;42.782;23.108;2023-09-07T05:12:24;94526.69;;;15.75
62930;BMP280;49036;42.782;23.108;2023-09-07T05:14:50;94522.69;;;15.78
62930;BMP280;49036;42.782;23.108;2023-09-07T05:17:15;94524.34;;;15.83
62930;BMP280;49036;42.782;23.108;2023-09-07T05:19:41;94525.69;;;15.82
62930;BMP280;49036;42.782;23.108;2023-09-07T05:22:06;94532.66;;;15.81
62930;BMP280;49036;42.782;23.108;2023-09-07T05:24:32;94530.66;;;15.84
62930;BMP280;49036;42.782;23.108;2023-09-07T05:26:57;94533.75;;;15.76
62930;BMP280;49036;42.782;23.108;2023-09-07T05:29:23;94537.78;;;15.73
62930;BMP280;49036;42.782;23.108;2023-09-07T05:31:48;94537.78;;;15.73
62930;BMP280;49036;42.782;23.108;2023-09-07T05:34:14;94528.84;;;15.77
62930;BMP280;49036;42.782;23.108;2023-09-07T05:36:39;94526.19;;;15.79
62930;BMP280;49036;42.782;23.108;2023-09-07T05:39:05;94530.66;;;15.84
62930;BMP280;49036;42.782;23.108;2023-09-07T05:41:30;94527.38;;;15.87
62930;BMP280;49036;42.782;23.108;2023-09-07T05:43:56;94538.94;;;15.93
62930;BMP280;49036;42.782;23.108;2023-09-07T05:46:21;94531.94;;;16.06
62930;BMP280;49036;42.782;23.108;2023-09-07T05:48:47;94523.25;;;16.14
62930;BMP280;49036;42.782;23.108;2023-09-07T05:51:12;94533.81;;;16.27
62930;BMP280;49036;42.782;23.108;2023-09-07T05:53:39;94535.03;;;16.49
62930;BMP280;49036;42.782;23.108;2023-09-07T05:56:04;94538.19;;;16.69
62930;BMP280;49036;42.782;23.108;2023-09-07T05:58:30;94537.69;;;16.86
62930;BMP280;49036;42.782;23.108;2023-09-07T06:00:55;94537.81;;;17.16
62930;BMP280;49036;42.782;23.108;2023-09-07T06:03:21;94545.63;;;17.45
62930;BMP280;49036;42.782;23.108;2023-09-07T06:06:07;94539.13;;;17.83
62930;BMP280;49036;42.782;23.108;2023-09-07T06:08:33;94533.00;;;18.16
62930;BMP280;49036;42.782;23.108;2023-09-07T06:10:58;94535.38;;;18.37
62930;BMP280;49036;42.782;23.108;2023-09-07T06:13:25;94536.03;;;18.52
62930;BMP280;49036;42.782;23.108;2023-09-07T06:15:50;94543.03;;;18.66
62930;BMP280;49036;42.782;23.108;2023-09-07T06:18:16;94534.16;;;18.88
62930;BMP280;49036;42.782;23.108;2023-09-07T06:20:41;94543.56;;;19.10
62930;BMP280;49036;42.782;23.108;2023-09-07T06:23:07;94542.84;;;19.25
62930;BMP280;49036;42.782;23.108;2023-09-07T06:25:32;94546.63;;;19.32
62930;BMP280;49036;42.782;23.108;2023-09-07T06:27:58;94540.69;;;19.41
62930;BMP280;49036;42.782;23.108;2023-09-07T06:30:23;94552.25;;;19.32
62930;BMP280;49036;42.782;23.108;2023-09-07T06:32:49;94550.38;;;19.54
62930;BMP280;49036;42.782;23.108;2023-09-07T06:35:16;94545.66;;;19.59
62930;BMP280;49036;42.782;23.108;2023-09-07T06:39:05;94551.47;;;19.63
62930;BMP280;49036;42.782;23.108;2023-09-07T06:41:31;94554.00;;;19.57
62930;BMP280;49036;42.782;23.108;2023-09-07T06:43:56;94560.50;;;19.77
62930;BMP280;49036;42.782;23.108;2023-09-07T06:46:22;94554.25;;;19.96
62930;BMP280;49036;42.782;23.108;2023-09-07T06:48:47;94546.25;;;19.91
62930;BMP280;49036;42.782;23.108;2023-09-07T06:51:13;94546.19;;;19.89
62930;BMP280;49036;42.782;23.108;2023-09-07T06:53:39;94535.53;;;19.87
62930;BMP280;49036;42.782;23.108;2023-09-07T07:06:38;94552.78;;;21.25
62930;BMP280;49036;42.782;23.108;2023-09-07T07:09:05;94559.41;;;21.34
62930;BMP280;49036;42.782;23.108;2023-09-07T07:11:31;94557.03;;;21.26
62930;BMP280;49036;42.782;23.108;2023-09-07T07:13:56;94554.72;;;21.21
62930;BMP280;49036;42.782;23.108;2023-09-07T07:16:22;94553.06;;;21.33
62930;BMP280;49036;42.782;23.108;2023-09-07T07:18:47;94555.09;;;21.11
62930;BMP280;49036;42.782;23.108;2023-09-07T07:21:13;94557.69;;;20.85
62930;BMP280;49036;42.782;23.108;2023-09-07T07:23:38;94558.06;;;20.58
62930;BMP280;49036;42.782;23.108;2023-09-07T07:26:04;94556.38;;;20.51
62930;BMP280;49036;42.782;23.108;2023-09-07T07:28:29;94559.22;;;20.51
62930;BMP280;49036;42.782;23.108;2023-09-07T07:30:55;94559.53;;;20.59
62930;BMP280;49036;42.782;23.108;2023-09-07T07:33:21;94561.28;;;20.88
62930;BMP280;49036;42.782;23.108;2023-09-07T07:35:47;94559.34;;;21.32
62930;BMP280;49036;42.782;23.108;2023-09-07T07:38:14;94553.00;;;21.53
62930;BMP280;49036;42.782;23.108;2023-09-07T07:40:40;94552.75;;;21.67
62930;BMP280;49036;42.782;23.108;2023-09-07T07:43:05;94557.84;;;21.70
62930;BMP280;49036;42.782;23.108;2023-09-07T07:47:11;94560.19;;;21.78
62930;BMP280;49036;42.782;23.108;2023-09-07T07:49:36;94557.41;;;21.58
62930;BMP280;49036;42.782;23.108;2023-09-07T07:52:07;94553.56;;;21.28
62930;BMP280;49036;42.782;23.108;2023-09-07T07:56:50;94557.75;;;20.87
62930;BMP280;49036;42.782;23.108;2023-09-07T07:59:16;94553.19;;;20.78
62930;BMP280;49036;42.782;23.108;2023-09-07T08:01:41;94550.78;;;20.71
62930;BMP280;49036;42.782;23.108;2023-09-07T08:04:08;94552.03;;;20.66
62930;BMP280;49036;42.782;23.108;2023-09-07T08:06:33;94549.81;;;20.64
62930;BMP280;49036;42.782;23.108;2023-09-07T08:09:00;94547.00;;;20.64
62930;BMP280;49036;42.782;23.108;2023-09-07T08:11:25;94547.84;;;20.67
62930;BMP280;49036;42.782;23.108;2023-09-07T08:13:52;94545.88;;;20.71
62930;BMP280;49036;42.782;23.108;2023-09-07T08:17:15;94554.75;;;20.83
62930;BMP280;49036;42.782;23.108;2023-09-07T08:19:40;94551.38;;;20.87
62930;BMP280;49036;42.782;23.108;2023-09-07T08:22:06;94549.06;;;20.81
62930;BMP280;49036;42.782;23.108;2023-09-07T08:24:32;94556.88;;;20.83
62930;BMP280;49036;42.782;23.108;2023-09-07T08:26:58;94550.09;;;20.90
62930;BMP280;49036;42.782;23.108;2023-09-07T08:29:25;94541.19;;;20.98
62930;BMP280;49036;42.782;23.108;2023-09-07T08:33:09;94545.97;;;21.13
62930;BMP280;49036;42.782;23.108;2023-09-07T08:35:35;94538.09;;;21.29
62930;BMP280;49036;42.782;23.108;2023-09-07T08:38:03;94543.81;;;21.53
62930;BMP280;49036;42.782;23.108;2023-09-07T08:40:31;94550.59;;;21.65
62930;BMP280;49036;42.782;23.108;2023-09-07T08:43:03;94549.78;;;21.83
62930;BMP280;49036;42.782;23.108;2023-09-07T08:45:30;94551.44;;;22.14
62930;BMP280;49036;42.782;23.108;2023-09-07T08:47:57;94548.78;;;22.41
62930;BMP280;49036;42.782;23.108;2023-09-07T08:50:24;94544.69;;;22.70
62930;BMP280;49036;42.782;23.108;2023-09-07T08:52:52;94553.34;;;22.76
62930;BMP280;49036;42.782;23.108;2023-09-07T08:55:19;94547.53;;;22.96
62930;BMP280;49036;42.782;23.108;2023-09-07T08:57:45;94545.69;;;23.33
62930;BMP280;49036;42.782;23.108;2023-09-07T09:00:11;94540.75;;;23.61
62930;BMP280;49036;42.782;23.108;2023-09-07T09:02:42;94549.22;;;23.89
62930;BMP280;49036;42.782;23.108;2023-09-07T09:05:12;94545.41;;;23.78
62930;BMP280;49036;42.782;23.108;2023-09-07T09:07:39;94543.06;;;23.69
62930;BMP280;49036;42.782;23.108;2023-09-07T09:10:06;94547.91;;;23.64
62930;BMP280;49036;42.782;23.108;2023-09-07T09:12:32;94542.75;;;23.56
62930;BMP280;49036;42.782;23.108;2023-09-07T09:14:59;94549.94;;;23.59
62930;BMP280;49036;42.782;23.108;2023-09-07T09:17:25;94546.09;;;23.77
62930;BMP280;49036;42.782;23.108;2023-09-07T09:19:51;94539.38;;;23.92
62930;BMP280;49036;42.782;23.108;2023-09-07T09:22:17;94539.31;;;24.20
62930;BMP280;49036;42.782;23.108;2023-09-07T09:24:42;94545.47;;;24.42
62930;BMP280;49036;42.782;23.108;2023-09-07T09:27:08;94535.69;;;24.83
62930;BMP280;49036;42.782;23.108;2023-09-07T09:29:34;94542.09;;;24.84
62930;BMP280;49036;42.782;23.108;2023-09-07T09:32:04;94543.59;;;24.89
62930;BMP280;49036;42.782;23.108;2023-09-07T09:34:36;94533.81;;;24.62
62930;BMP280;49036;42.782;23.108;2023-09-07T09:37:03;94540.63;;;24.49
62930;BMP280;49036;42.782;23.108;2023-09-07T09:39:29;94530.13;;;24.55
62930;BMP280;49036;42.782;23.108;2023-09-07T09:41:55;94532.88;;;24.49
62930;BMP280;49036;42.782;23.108;2023-09-07T09:44:21;94530.97;;;24.62
62930;BMP280;49036;42.782;23.108;2023-09-07T09:46:52;94527.44;;;24.61
62930;BMP280;49036;42.782;23.108;2023-09-07T09:49:20;94529.19;;;24.78
62930;BMP280;49036;42.782;23.108;2023-09-07T09:51:48;94520.53;;;25.08
62930;BMP280;49036;42.782;23.108;2023-09-07T09:54:13;94528.09;;;24.58
62930;BMP280;49036;42.782;23.108;2023-09-07T09:56:39;94529.53;;;24.27
62930;BMP280;49036;42.782;23.108;2023-09-07T10:00:18;94527.09;;;23.83
62930;BMP280;49036;42.782;23.108;2023-09-07T10:02:48;94526.16;;;23.73
62930;BMP280;49036;42.782;23.108;2023-09-07T10:05:16;94522.06;;;23.80
62930;BMP280;49036;42.782;23.108;2023-09-07T10:07:43;94524.47;;;23.91
62930;BMP280;49036;42.782;23.108;2023-09-07T10:10:13;94514.91;;;24.07
62930;BMP280;49036;42.782;23.108;2023-09-07T10:12:44;94517.78;;;24.09
62930;BMP280;49036;42.782;23.108;2023-09-07T10:15:26;94506.69;;;24.21
62930;BMP280;49036;42.782;23.108;2023-09-07T10:22:29;94505.66;;;24.38
62930;BMP280;49036;42.782;23.108;2023-09-07T10:24:58;94496.72;;;24.18
62930;BMP280;49036;42.782;23.108;2023-09-07T10:27:24;94502.19;;;24.10
62930;BMP280;49036;42.782;23.108;2023-09-07T10:29:50;94502.78;;;24.36
62930;BMP280;49036;42.782;23.108;2023-09-07T10:32:19;94501.53;;;24.45
62930;BMP280;49036;42.782;23.108;2023-09-07T10:34:44;94511.50;;;24.14
62930;BMP280;49036;42.782;23.108;2023-09-07T10:37:11;94512.16;;;23.81
62930;BMP280;49036;42.782;23.108;2023-09-07T10:39:43;94500.22;;;24.16
62930;BMP280;49036;42.782;23.108;2023-09-07T10:43:01;94499.38;;;24.77
62930;BMP280;49036;42.782;23.108;2023-09-07T10:45:29;94501.13;;;25.35
62930;BMP280;49036;42.782;23.108;2023-09-07T10:47:54;94502.59;;;25.38
62930;BMP280;49036;42.782;23.108;2023-09-07T10:51:47;94505.09;;;25.60
62930;BMP280;49036;42.782;23.108;2023-09-07T10:54:23;94498.78;;;25.23
62930;BMP280;49036;42.782;23.108;2023-09-07T10:56:50;94497.97;;;25.18
62930;BMP280;49036;42.782;23.108;2023-09-07T10:59:17;94502.09;;;25.49
62930;BMP280;49036;42.782;23.108;2023-09-07T11:01:45;94506.59;;;25.65
62930;BMP280;49036;42.782;23.108;2023-09-07T11:04:11;94504.28;;;25.53
62930;BMP280;49036;42.782;23.108;2023-09-07T11:06:38;94503.75;;;25.65
62930;BMP280;49036;42.782;23.108;2023-09-07T11:09:05;94498.09;;;24.85
62930;BMP280;49036;42.782;23.108;2023-09-07T11:11:34;94497.16;;;24.74
62930;BMP280;49036;42.782;23.108;2023-09-07T11:14:04;94492.41;;;24.85
62930;BMP280;49036;42.782;23.108;2023-09-07T11:19:51;94497.94;;;24.76
62930;BMP280;49036;42.782;23.108;2023-09-07T11:22:17;94490.88;;;24.77
62930;BMP280;49036;42.782;23.108;2023-09-07T11:24:45;94491.00;;;24.86
62930;BMP280;49036;42.782;23.108;2023-09-07T11:27:11;94491.09;;;24.92
62930;BMP280;49036;42.782;23.108;2023-09-07T11:29:36;94488.53;;;25.06
62930;BMP280;49036;42.782;23.108;2023-09-07T11:32:08;94489.00;;;25.32
62930;BMP280;49036;42.782;23.108;2023-09-07T11:34:34;94493.56;;;25.49
62930;BMP280;49036;42.782;23.108;2023-09-07T11:37:02;94491.91;;;25.34
62930;BMP280;49036;42.782;23.108;2023-09-07T11:39:28;94479.59;;;25.22
62930;BMP280;49036;42.782;23.108;2023-09-07T11:41:54;94476.31;;;25.37
62930;BMP280;49036;42.782;23.108;2023-09-07T11:44:20;94473.31;;;24.89
62930;BMP280;49036;42.782;23.108;2023-09-07T11:46:46;94472.78;;;24.99
62930;BMP280;49036;42.782;23.108;2023-09-07T11:49:11;94479.72;;;24.90
62930;BMP280;49036;42.782;23.108;2023-09-07T11:51:47;94481.53;;;25.11
62930;BMP280;49036;42.782;23.108;2023-09-07T11:54:13;94485.63;;;25.02
62930;BMP280;49036;42.782;23.108;2023-09-07T11:56:38;94468.47;;;24.96
62930;BMP280;49036;42.782;23.108;2023-09-07T11:59:08;94476.94;;;24.94
62930;BMP280;49036;42.782;23.108;2023-09-07T12:01:34;94476.31;;;24.97
62930;BMP280;49036;42.782;23.108;2023-09-07T12:04:00;94476.69;;;24.79
62930;BMP280;49036;42.782;23.108;2023-09-07T12:07:31;94476.56;;;24.73
62930;BMP280;49036;42.782;23.108;2023-09-07T12:09:57;94473.31;;;24.89
62930;BMP280;49036;42.782;23.108;2023-09-07T12:14:17;94469.31;;;25.02
62930;BMP280;49036;42.782;23.108;2023-09-07T12:16:43;94477.34;;;25.14
62930;BMP280;49036;42.782;23.108;2023-09-07T12:19:08;94464.50;;;24.73
62930;BMP280;49036;42.782;23.108;2023-09-07T12:21:34;94473.22;;;24.83
62930;BMP280;49036;42.782;23.108;2023-09-07T12:23:59;94466.59;;;24.70
62930;BMP280;49036;42.782;23.108;2023-09-07T12:26:25;94465.09;;;24.67
62930;BMP280;49036;42.782;23.108;2023-09-07T12:28:51;94458.19;;;24.76
62930;BMP280;49036;42.782;23.108;2023-09-07T12:31:16;94459.59;;;24.42
62930;BMP280;49036;42.782;23.108;2023-09-07T12:35:00;94456.63;;;24.33
62930;BMP280;49036;42.782;23.108;2023-09-07T12:37:26;94457.19;;;24.28
62930;BMP280;49036;42.782;23.108;2023-09-07T12:39:51;94458.03;;;24.34
62930;BMP280;49036;42.782;23.108;2023-09-07T12:42:17;94454.84;;;24.50
62930;BMP280;49036;42.782;23.108;2023-09-07T12:44:43;94455.19;;;24.34
62930;BMP280;49036;42.782;23.108;2023-09-07T12:47:09;94458.19;;;24.41
62930;BMP280;49036;42.782;23.108;2023-09-07T12:49:34;94464.66;;;24.45
62930;BMP280;49036;42.782;23.108;2023-09-07T12:52:00;94461.97;;;24.51
62930;BMP280;49036;42.782;23.108;2023-09-07T12:54:26;94465.66;;;24.24
62930;BMP280;49036;42.782;23.108;2023-09-07T12:56:52;94466.94;;;24.19
62930;BMP280;49036;42.782;23.108;2023-09-07T12:59:17;94460.63;;;24.22
62930;BMP280;49036;42.782;23.108;2023-09-07T13:01:43;94469.13;;;24.20
62930;BMP280;49036;42.782;23.108;2023-09-07T13:04:08;94477.06;;;24.28
62930;BMP280;49036;42.782;23.108;2023-09-07T13:06:36;94472.19;;;24.30
62930;BMP280;49036;42.782;23.108;2023-09-07T13:09:02;94470.81;;;24.35
62930;BMP280;49036;42.782;23.108;2023-09-07T13:11:29;94466.81;;;24.13
62930;BMP280;49036;42.782;23.108;2023-09-07T13:13:55;94470.59;;;23.91
62930;BMP280;49036;42.782;23.108;2023-09-07T13:16:20;94473.06;;;23.75
62930;BMP280;49036;42.782;23.108;2023-09-07T13:18:46;94476.53;;;23.72
62930;BMP280;49036;42.782;23.108;2023-09-07T13:21:11;94483.16;;;23.82
62930;BMP280;49036;42.782;23.108;2023-09-07T13:23:36;94479.53;;;23.80
62930;BMP280;49036;42.782;23.108;2023-09-07T13:29:11;94468.53;;;23.64
62930;BMP280;49036;42.782;23.108;2023-09-07T13:31:37;94473.19;;;23.51
62930;BMP280;49036;42.782;23.108;2023-09-07T13:34:02;94468.06;;;23.44
62930;BMP280;49036;42.782;23.108;2023-09-07T13:36:28;94470.72;;;23.38
62930;BMP280;49036;42.782;23.108;2023-09-07T13:38:54;94464.16;;;23.29
62930;BMP280;49036;42.782;23.108;2023-09-07T13:41:22;94474.41;;;23.42
62930;BMP280;49036;42.782;23.108;2023-09-07T13:43:48;94466.59;;;23.41
62930;BMP280;49036;42.782;23.108;2023-09-07T13:48:10;94463.03;;;23.40
62930;BMP280;49036;42.782;23.108;2023-09-07T13:50:35;94465.13;;;23.40
62930;BMP280;49036;42.782;23.108;2023-09-07T13:53:01;94463.59;;;23.35
62930;BMP280;49036;42.782;23.108;2023-09-07T13:55:26;94460.38;;;23.48
62930;BMP280;49036;42.782;23.108;2023-09-07T13:57:52;94463.44;;;23.58
62930;BMP280;49036;42.782;23.108;2023-09-07T14:00:17;94458.09;;;24.03
62930;BMP280;49036;42.782;23.108;2023-09-07T14:02:43;94459.78;;;24.50
62930;BMP280;49036;42.782;23.108;2023-09-07T14:05:08;94452.78;;;24.93
62930;BMP280;49036;42.782;23.108;2023-09-07T14:07:34;94458.09;;;25.12
62930;BMP280;49036;42.782;23.108;2023-09-07T14:10:31;94455.22;;;25.08
62930;BMP280;49036;42.782;23.108;2023-09-07T14:12:56;94459.75;;;24.86
62930;BMP280;49036;42.782;23.108;2023-09-07T14:15:22;94459.75;;;24.84
62930;BMP280;49036;42.782;23.108;2023-09-07T14:17:47;94446.94;;;24.83
62930;BMP280;49036;42.782;23.108;2023-09-07T14:20:13;94454.53;;;25.10
62930;BMP280;49036;42.782;23.108;2023-09-07T14:24:30;94453.03;;;25.05
62930;BMP280;49036;42.782;23.108;2023-09-07T14:26:55;94457.00;;;24.90
62930;BMP280;49036;42.782;23.108;2023-09-07T14:29:21;94450.38;;;24.77
62930;BMP280;49036;42.782;23.108;2023-09-07T14:31:46;94452.13;;;24.56
62930;BMP280;49036;42.782;23.108;2023-09-07T14:34:13;94441.72;;;24.33
62930;BMP280;49036;42.782;23.108;2023-09-07T14:36:38;94445.47;;;24.10
62930;BMP280;49036;42.782;23.108;2023-09-07T14:39:07;94445.59;;;23.84
62930;BMP280;49036;42.782;23.108;2023-09-07T14:41:36;94443.69;;;23.63
62930;BMP280;49036;42.782;23.108;2023-09-07T14:44:02;94457.19;;;23.34
62930;BMP280;49036;42.782;23.108;2023-09-07T14:46:28;94450.91;;;23.10